Time;durP1;ratioP1;P1;durP2;ratioP2;P2;SDS_P1;SDS_P2;PMS_P1;PMS_P2;Temp;Humidity;BMP_temperature;BMP_pressure;BME280_temperature;BME280_humidity;BME280_pressure;Samples;Min_cycle;Max_cycle;Signal;HPM_P1;HPM_P2
2023/02/15 00:02:19;;;;;;;40.13;25.27;;;4.50;1.00;;;;;;6112634;23;20228;-80
2023/02/15 00:04:50;;;;;;;35.30;24.73;;;4.50;1.00;;;;;;6116367;23;20204;-79
2023/02/15 00:07:19;;;;;;;37.15;25.13;;;4.40;1.00;;;;;;6116104;23;20223;-82
2023/02/15 00:09:49;;;;;;;34.28;24.55;;;4.40;1.00;;;;;;6116156;23;20204;-80
2023/02/15 00:12:22;;;;;;;39.45;24.75;;;4.40;1.00;;;;;;6112999;23;20215;-81
2023/02/15 00:14:49;;;;;;;34.55;23.60;;;4.40;1.00;;;;;;6116736;23;20222;-81
2023/02/15 00:17:20;;;;;;;40.95;25.58;;;4.40;1.00;;;;;;6115409;23;20220;-81
2023/02/15 00:19:49;;;;;;;37.20;26.33;;;4.40;1.00;;;;;;6117234;23;20212;-81
2023/02/15 00:22:20;;;;;;;37.35;23.48;;;4.30;1.00;;;;;;6113978;23;20208;-77
2023/02/15 00:24:51;;;;;;;39.70;25.67;;;4.40;1.00;;;;;;6117352;23;20233;-81
2023/02/15 00:27:21;;;;;;;36.17;25.17;;;4.40;1.00;;;;;;6101000;23;20244;-82
2023/02/15 00:29:51;;;;;;;35.60;23.05;;;4.20;1.00;;;;;;6118050;23;20220;-81
2023/02/15 00:32:20;;;;;;;36.17;24.65;;;4.20;1.00;;;;;;6118207;23;20203;-81
2023/02/15 00:34:49;;;;;;;36.00;24.10;;;4.10;1.00;;;;;;6117434;23;20237;-81
2023/02/15 00:37:18;;;;;;;36.75;24.73;;;4.00;1.00;;;;;;6115746;23;20219;-81
2023/02/15 00:39:48;;;;;;;36.80;24.52;;;4.10;1.00;;;;;;6116108;23;20247;-77
2023/02/15 00:42:19;;;;;;;38.83;25.42;;;4.00;1.00;;;;;;6113306;23;20226;-78
2023/02/15 00:44:48;;;;;;;34.15;22.30;;;4.00;1.00;;;;;;6114672;23;20220;-78
2023/02/15 00:47:20;;;;;;;38.92;24.67;;;4.00;1.00;;;;;;6106795;23;20690;-79
2023/02/15 00:49:49;;;;;;;38.40;25.23;;;4.00;1.00;;;;;;6105371;23;20205;-80
2023/02/15 00:52:19;;;;;;;34.75;24.60;;;4.00;1.00;;;;;;6102932;23;20227;-78
2023/02/15 00:54:47;;;;;;;40.70;26.38;;;3.90;1.00;;;;;;6104998;23;20212;-78
2023/02/15 00:57:18;;;;;;;37.00;25.50;;;3.90;1.00;;;;;;6099349;23;20673;-81
2023/02/15 00:59:49;;;;;;;40.92;26.00;;;3.90;1.00;;;;;;6098543;23;21069;-79
2023/02/15 01:02:17;;;;;;;37.30;25.02;;;3.80;1.00;;;;;;6103724;23;20951;-78
2023/02/15 01:04:48;;;;;;;36.13;24.67;;;3.70;1.00;;;;;;6103936;23;20224;-79
2023/02/15 01:07:19;;;;;;;33.95;23.65;;;3.70;1.00;;;;;;6103793;23;20331;-80
2023/02/15 01:09:46;;;;;;;38.78;26.77;;;3.70;1.00;;;;;;6103316;23;20979;-78
2023/02/15 01:12:15;;;;;;;39.63;24.33;;;3.70;1.00;;;;;;6108062;23;20248;-79
2023/02/15 01:14:42;;;;;;;34.75;23.70;;;3.70;1.00;;;;;;6105452;23;20888;-78
2023/02/15 01:17:09;;;;;;;40.15;26.58;;;3.70;1.00;;;;;;6104767;23;20220;-81
2023/02/15 01:19:37;;;;;;;40.35;25.38;;;3.60;1.00;;;;;;6106277;23;20955;-79
2023/02/15 01:22:12;;;;;;;38.08;25.92;;;3.60;1.00;;;;;;6105178;23;20243;-78
2023/02/15 01:24:40;;;;;;;41.55;26.52;;;3.60;1.00;;;;;;6111113;23;20214;-81
2023/02/15 01:27:09;;;;;;;39.90;24.55;;;3.50;1.00;;;;;;6116982;23;20204;-81
2023/02/15 01:29:38;;;;;;;35.92;24.17;;;3.50;1.00;;;;;;6115419;23;20243;-82
2023/02/15 01:32:12;;;;;;;43.17;26.67;;;3.40;1.00;;;;;;6114508;23;20211;-81
2023/02/15 01:34:39;;;;;;;38.83;24.38;;;3.40;1.00;;;;;;6117373;23;20249;-81
2023/02/15 01:37:09;;;;;;;40.53;25.60;;;3.30;1.00;;;;;;6115134;23;20216;-80
2023/02/15 01:39:41;;;;;;;39.45;26.58;;;3.30;1.00;;;;;;6105673;23;20216;-81
2023/02/15 01:42:12;;;;;;;43.08;27.38;;;3.20;1.00;;;;;;6114790;23;20212;-80
2023/02/15 01:44:51;;;;;;;41.22;25.95;;;3.20;1.00;;;;;;6114929;23;20273;-80
2023/02/15 01:47:27;;;;;;;39.08;25.27;;;3.10;1.00;;;;;;6113619;23;20208;-80
2023/02/15 01:50:04;;;;;;;35.63;23.85;;;3.10;1.00;;;;;;6114239;23;20211;-80
2023/02/15 01:52:34;;;;;;;38.42;25.02;;;3.10;1.00;;;;;;6113729;23;20211;-78
2023/02/15 01:55:10;;;;;;;43.38;26.73;;;3.10;1.00;;;;;;6113785;23;20299;-79
2023/02/15 01:57:38;;;;;;;42.83;27.17;;;3.00;1.00;;;;;;6116855;23;20216;-79
2023/02/15 02:00:27;;;;;;;42.95;25.67;;;3.00;1.00;;;;;;6111295;23;20228;-77
2023/02/15 02:03:09;;;;;;;38.05;23.85;;;2.90;1.00;;;;;;6111290;23;20214;-78
2023/02/15 02:05:39;;;;;;;39.22;25.27;;;2.90;1.00;;;;;;6113402;23;20267;-78
2023/02/15 02:08:10;;;;;;;42.65;26.10;;;2.90;1.00;;;;;;6109621;23;20192;-80
2023/02/15 02:10:40;;;;;;;46.60;29.38;;;2.80;1.00;;;;;;6112475;23;20218;-80
2023/02/15 02:13:09;;;;;;;43.17;27.85;;;2.80;1.00;;;;;;6113451;23;20784;-81
2023/02/15 02:15:51;;;;;;;41.78;27.50;;;2.70;1.00;;;;;;6114727;23;20227;-77
2023/02/15 02:18:37;;;;;;;41.05;27.48;;;2.70;1.00;;;;;;6113978;23;20224;-77
2023/02/15 02:21:32;;;;;;;43.85;28.33;;;2.80;1.00;;;;;;6113368;23;20259;-78
2023/02/15 02:24:19;;;;;;;50.33;30.83;;;2.70;1.00;;;;;;6113683;23;20250;-80
2023/02/15 02:27:29;;;;;;;41.67;26.33;;;2.70;1.00;;;;;;6112737;23;20250;-82
2023/02/15 02:30:49;;;;;;;52.20;28.83;;;2.70;1.00;;;;;;5944885;24;20255;-83
2023/02/15 02:33:59;;;;;;;49.50;30.13;;;2.70;1.00;;;;;;6112046;23;20244;-79
2023/02/15 02:36:41;;;;;;;47.22;29.88;;;2.70;1.00;;;;;;6115900;23;20204;-82
2023/02/15 02:39:31;;;;;;;53.45;29.80;;;2.60;1.00;;;;;;6118388;23;20203;-79
2023/02/15 02:42:04;;;;;;;52.25;30.38;;;2.70;1.00;;;;;;6105726;23;20264;-80
2023/02/15 02:44:47;;;;;;;55.40;31.77;;;2.60;1.00;;;;;;6116102;23;20220;-77
2023/02/15 02:47:27;;;;;;;52.25;30.45;;;2.50;1.00;;;;;;6114484;23;20200;-78
2023/02/15 02:50:02;;;;;;;55.38;31.75;;;2.50;1.00;;;;;;6116168;23;20222;-79
2023/02/15 02:52:41;;;;;;;59.92;34.53;;;2.40;1.00;;;;;;6116949;23;20216;-84
2023/02/15 02:55:19;;;;;;;57.17;33.53;;;2.30;1.00;;;;;;6116409;23;20225;-81
2023/02/15 02:58:01;;;;;;;57.25;35.55;;;2.20;1.00;;;;;;6122349;23;20204;-81
2023/02/15 03:00:40;;;;;;;58.08;34.50;;;2.20;1.00;;;;;;6119835;23;20219;-82
2023/02/15 03:03:21;;;;;;;61.13;33.28;;;2.20;1.00;;;;;;6089159;23;20215;-80
2023/02/15 03:05:53;;;;;;;59.85;32.28;;;2.30;1.00;;;;;;6111870;23;20239;-84
2023/02/15 03:08:23;;;;;;;61.72;34.30;;;2.30;1.00;;;;;;6108929;23;20257;-82
2023/02/15 03:10:54;;;;;;;55.35;32.10;;;2.20;1.00;;;;;;6107570;23;20697;-81
2023/02/15 03:13:22;;;;;;;62.08;33.20;;;2.20;1.00;;;;;;6107829;23;20220;-81
2023/02/15 03:18:40;;;;;;;57.22;35.15;;;2.10;1.00;;;;;;6109851;23;20227;-81
2023/02/15 03:21:21;;;;;;;56.67;32.88;;;2.10;1.00;;;;;;6108936;23;20275;-79
2023/02/15 03:23:52;;;;;;;61.97;35.40;;;2.00;1.00;;;;;;6110302;23;21017;-80
2023/02/15 03:26:22;;;;;;;56.30;32.92;;;1.90;1.00;;;;;;6109990;23;20212;-81
2023/02/15 03:28:52;;;;;;;58.35;33.40;;;1.90;1.00;;;;;;6109923;23;20244;-81
2023/02/15 03:31:22;;;;;;;62.22;36.78;;;1.80;1.00;;;;;;6110486;23;20260;-81
2023/02/15 03:33:54;;;;;;;59.13;32.10;;;1.70;1.00;;;;;;6110048;23;21302;-81
2023/02/15 03:36:28;;;;;;;60.20;34.83;;;1.70;1.00;;;;;;6110431;23;20287;-82
2023/02/15 03:39:07;;;;;;;58.75;34.60;;;1.70;1.00;;;;;;6111346;23;20271;-79
2023/02/15 03:41:39;;;;;;;62.88;36.22;;;1.60;1.00;;;;;;6110955;23;20223;-82
2023/02/15 03:44:12;;;;;;;60.35;35.55;;;1.60;1.00;;;;;;6107477;23;20689;-80
2023/02/15 03:46:46;;;;;;;57.03;33.95;;;1.50;1.00;;;;;;6109621;23;20215;-81
2023/02/15 03:49:19;;;;;;;65.32;35.70;;;1.50;1.00;;;;;;6109462;23;20233;-82
2023/02/15 03:51:51;;;;;;;63.35;34.72;;;1.50;1.00;;;;;;6107040;23;20626;-82
2023/02/15 04:02:39;;;;;;;70.15;34.65;;;1.20;1.00;;;;;;6106303;23;20676;-82
2023/02/15 04:05:09;;;;;;;65.95;35.17;;;1.20;1.00;;;;;;6107607;23;20220;-81
2023/02/15 04:07:37;;;;;;;62.90;35.15;;;1.20;1.00;;;;;;6110210;23;20221;-79
2023/02/15 04:12:48;;;;;;;64.68;35.65;;;1.20;1.00;;;;;;6065880;23;20202;-82
2023/02/15 04:18:02;;;;;;;58.67;36.42;;;1.00;1.00;;;;;;6110089;23;20263;-81
2023/02/15 04:26:04;;;;;;;58.85;33.78;;;0.90;1.00;;;;;;6107523;23;20216;-80
2023/02/15 04:28:31;;;;;;;59.53;33.42;;;0.90;1.00;;;;;;6110631;23;20552;-83
2023/02/15 04:30:59;;;;;;;59.53;33.55;;;0.80;1.00;;;;;;6111112;23;20205;-82
2023/02/15 04:33:28;;;;;;;58.03;33.35;;;0.80;1.00;;;;;;6108724;23;20278;-82
2023/02/15 04:35:56;;;;;;;60.45;33.50;;;0.70;1.00;;;;;;6110525;23;20680;-82
2023/02/15 04:38:24;;;;;;;65.78;34.45;;;0.70;1.00;;;;;;6112018;23;20246;-80
2023/02/15 04:40:52;;;;;;;61.65;32.67;;;0.70;1.00;;;;;;6111087;23;20215;-81
2023/02/15 04:43:19;;;;;;;61.28;32.65;;;0.60;1.00;;;;;;6109184;23;20192;-82
2023/02/15 04:45:50;;;;;;;57.38;32.70;;;0.60;1.00;;;;;;6114062;23;20264;-82
2023/02/15 04:48:17;;;;;;;61.33;34.40;;;0.50;1.00;;;;;;6112219;23;20263;-82
2023/02/15 04:50:44;;;;;;;64.07;34.10;;;0.60;1.00;;;;;;6111987;23;20258;-82
2023/02/15 04:53:12;;;;;;;63.03;33.08;;;0.50;1.00;;;;;;6109014;23;20223;-82
2023/02/15 04:55:40;;;;;;;68.43;32.95;;;0.50;1.00;;;;;;6114029;23;20211;-83
2023/02/15 04:58:09;;;;;;;60.33;34.22;;;0.50;1.00;;;;;;6109650;23;20212;-82
2023/02/15 05:00:36;;;;;;;58.90;33.17;;;0.50;1.00;;;;;;6107752;23;20223;-82
2023/02/15 05:03:03;;;;;;;61.45;34.38;;;0.50;1.00;;;;;;6106975;23;20235;-81
2023/02/15 05:05:30;;;;;;;63.58;33.42;;;0.50;1.00;;;;;;6108879;23;21027;-82
2023/02/15 05:07:59;;;;;;;54.42;32.13;;;0.40;1.00;;;;;;6110462;23;20215;-83
2023/02/15 05:10:28;;;;;;;59.67;34.75;;;0.50;1.00;;;;;;6106675;23;20275;-81
2023/02/15 05:12:57;;;;;;;68.13;35.90;;;0.50;1.00;;;;;;6109557;23;20243;-81
2023/02/15 05:15:24;;;;;;;59.53;34.00;;;0.40;1.00;;;;;;6110229;23;20212;-81
2023/02/15 05:17:51;;;;;;;54.83;31.25;;;0.40;1.00;;;;;;6110541;23;20216;-83
2023/02/15 05:20:44;;;;;;;55.97;32.05;;;0.40;1.00;;;;;;6107512;23;20200;-82
2023/02/15 05:23:11;;;;;;;57.45;32.78;;;0.40;1.00;;;;;;6059283;23;20216;-81
2023/02/15 05:28:30;;;;;;;56.53;32.97;;;0.40;1.00;;;;;;6103794;23;20672;-81
2023/02/15 05:31:16;;;;;;;60.17;33.72;;;0.50;1.00;;;;;;6107391;23;20204;-81
2023/02/15 05:33:45;;;;;;;57.88;33.35;;;0.50;1.00;;;;;;6099424;23;20220;-80
2023/02/15 05:36:12;;;;;;;61.10;34.40;;;0.50;1.00;;;;;;6098727;23;20824;-80
2023/02/15 05:38:42;;;;;;;67.80;33.95;;;0.60;1.00;;;;;;6099128;23;20216;-81
2023/02/15 05:41:11;;;;;;;61.45;34.85;;;0.60;1.00;;;;;;6101339;23;20216;-81
2023/02/15 05:43:39;;;;;;;62.03;35.92;;;0.70;1.00;;;;;;6109014;23;20216;-82
2023/02/15 05:46:08;;;;;;;60.25;33.72;;;0.70;1.00;;;;;;6104718;23;20260;-81
2023/02/15 05:48:41;;;;;;;55.00;31.92;;;0.80;1.00;;;;;;6105430;23;20240;-81
2023/02/15 05:51:10;;;;;;;64.45;34.13;;;0.80;1.00;;;;;;6100932;23;20735;-80
2023/02/15 05:53:38;;;;;;;63.00;33.97;;;0.80;1.00;;;;;;6103518;23;21002;-80
2023/02/15 05:56:13;;;;;;;69.28;37.20;;;0.90;1.00;;;;;;6104097;23;20208;-84
2023/02/15 05:58:42;;;;;;;75.35;35.85;;;0.80;1.00;;;;;;6105835;23;20219;-83
2023/02/15 06:01:13;;;;;;;70.32;38.42;;;0.70;1.00;;;;;;6098609;23;20220;-81
2023/02/15 06:03:42;;;;;;;71.47;39.45;;;0.70;1.00;;;;;;6103406;23;20309;-85
2023/02/15 06:06:12;;;;;;;70.20;37.60;;;0.60;1.00;;;;;;6105677;23;20220;-82
2023/02/15 06:08:43;;;;;;;75.07;38.28;;;0.60;1.00;;;;;;6105446;23;20244;-81
2023/02/15 06:11:11;;;;;;;70.97;35.65;;;0.60;1.00;;;;;;6100615;23;20248;-81
2023/02/15 06:13:39;;;;;;;65.95;37.28;;;0.60;1.00;;;;;;6104352;23;20223;-82
2023/02/15 06:16:08;;;;;;;73.15;37.70;;;0.50;1.00;;;;;;6101023;23;20243;-80
2023/02/15 06:18:40;;;;;;;77.55;36.10;;;0.50;1.00;;;;;;6104243;23;20216;-83
2023/02/15 06:21:13;;;;;;;76.63;35.30;;;0.50;1.00;;;;;;6086639;23;20870;-82
2023/02/15 06:23:42;;;;;;;76.65;38.20;;;0.60;1.00;;;;;;6103344;23;20215;-82
2023/02/15 06:26:21;;;;;;;77.07;37.33;;;0.60;1.00;;;;;;6085928;23;20561;-83
2023/02/15 06:28:53;;;;;;;70.13;33.92;;;0.60;1.00;;;;;;6105648;23;21063;-84
2023/02/15 06:34:33;;;;;;;;;;;;;;;;;;;;;
2023/02/15 06:37:00;;;;;;;84.25;35.95;;;0.70;1.00;;;;;;6084533;23;39096;-83
2023/02/15 06:39:29;;;;;;;76.93;34.85;;;0.70;1.00;;;;;;6106058;23;20234;-81
2023/02/15 06:41:59;;;;;;;85.53;36.67;;;0.70;1.00;;;;;;6105087;23;20220;-79
2023/02/15 06:44:30;;;;;;;77.43;35.00;;;0.60;1.00;;;;;;6108601;23;20300;-79
2023/02/15 06:47:04;;;;;;;79.93;33.28;;;0.60;1.00;;;;;;6104314;23;20235;-80
2023/02/15 06:49:32;;;;;;;100.30;39.63;;;0.60;1.00;;;;;;6101447;23;20955;-82
2023/02/15 06:52:01;;;;;;;87.97;36.95;;;0.60;1.00;;;;;;6106168;23;20215;-80
2023/02/15 06:54:30;;;;;;;133.45;37.00;;;0.70;1.00;;;;;;6107985;23;20292;-81
2023/02/15 06:57:00;;;;;;;99.85;35.72;;;0.70;1.00;;;;;;6106762;23;20689;-80
2023/02/15 06:59:31;;;;;;;74.20;34.60;;;0.60;1.00;;;;;;6107915;23;20220;-80
2023/02/15 07:02:00;;;;;;;94.97;35.47;;;0.70;1.00;;;;;;6097188;23;20222;-82
2023/02/15 07:04:31;;;;;;;83.90;35.00;;;0.80;1.00;;;;;;6112153;23;20224;-81
2023/02/15 07:07:01;;;;;;;94.10;37.55;;;0.90;1.00;;;;;;6136765;23;20211;-80
2023/02/15 07:09:28;;;;;;;141.73;39.58;;;1.00;1.00;;;;;;6136992;23;20216;-80
2023/02/15 07:14:49;;;;;;;79.05;33.63;;;1.00;1.00;;;;;;6138531;23;20212;-80
2023/02/15 07:17:40;;;;;;;88.68;36.40;;;1.00;1.00;;;;;;6121877;23;20227;-80
2023/02/15 07:20:23;;;;;;;92.90;37.35;;;1.00;1.00;;;;;;6126571;23;20215;-79
2023/02/15 07:22:52;;;;;;;115.60;37.95;;;1.10;1.00;;;;;;6136936;23;20219;-81
2023/02/15 07:25:22;;;;;;;105.80;37.90;;;1.00;1.00;;;;;;6137339;23;20263;-80
2023/02/15 07:28:04;;;;;;;140.57;37.70;;;1.00;1.00;;;;;;6135023;23;20216;-81
2023/02/15 07:30:40;;;;;;;112.47;35.30;;;1.00;1.00;;;;;;6136850;23;20212;-81
2023/02/15 07:33:29;;;;;;;72.97;35.83;;;1.00;1.00;;;;;;6138420;23;20213;-83
2023/02/15 07:36:17;;;;;;;;;;;;;;;;;;;;;
2023/02/15 07:38:52;;;;;;;72.00;33.80;;;1.00;1.00;;;;;;6127352;23;40369;-80
2023/02/15 07:41:23;;;;;;;132.95;38.67;;;1.00;1.00;;;;;;6135480;23;21133;-80
2023/02/15 07:43:51;;;;;;;90.93;38.88;;;1.10;1.00;;;;;;6118447;23;20219;-80
2023/02/15 07:46:30;;;;;;;98.55;34.65;;;1.10;1.00;;;;;;6136218;23;20275;-82
2023/02/15 07:49:09;;;;;;;86.28;37.67;;;1.20;1.00;;;;;;6135987;23;20263;-81
2023/02/15 07:51:41;;;;;;;89.40;36.33;;;1.30;1.00;;;;;;6137554;23;21346;-83
2023/02/15 07:54:08;;;;;;;85.25;38.00;;;1.30;1.00;;;;;;6134950;23;20251;-80
2023/02/15 07:56:35;;;;;;;109.05;37.88;;;1.40;1.00;;;;;;6137434;23;20853;-80
2023/02/15 07:59:04;;;;;;;88.68;35.33;;;1.40;1.00;;;;;;6135628;23;20211;-80
2023/02/15 08:01:34;;;;;;;130.68;39.40;;;1.60;1.00;;;;;;6133871;23;20974;-80
2023/02/15 08:04:09;;;;;;;94.88;35.20;;;1.60;1.00;;;;;;6133583;23;20260;-80
2023/02/15 08:06:41;;;;;;;75.18;34.22;;;1.60;1.00;;;;;;6137205;23;20214;-81
2023/02/15 08:09:12;;;;;;;83.20;32.47;;;1.60;1.00;;;;;;6135989;23;20219;-80
2023/02/15 08:11:40;;;;;;;78.63;35.00;;;1.60;1.00;;;;;;6137707;23;20243;-80
2023/02/15 08:14:09;;;;;;;68.20;34.58;;;1.70;1.00;;;;;;6135841;23;20533;-82
2023/02/15 08:16:37;;;;;;;86.70;37.40;;;1.60;1.00;;;;;;6136178;23;20256;-80
2023/02/15 08:19:08;;;;;;;75.78;34.53;;;1.50;1.00;;;;;;6135096;23;20219;-80
2023/02/15 08:21:37;;;;;;;71.05;34.00;;;1.60;1.00;;;;;;6138349;23;20288;-82
2023/02/15 08:24:06;;;;;;;101.00;54.05;;;1.70;1.00;;;;;;6134729;23;20230;-81
2023/02/15 08:27:03;;;;;;;69.13;38.13;;;1.50;1.00;;;;;;6138082;23;20208;-80
2023/02/15 08:29:51;;;;;;;64.30;35.88;;;1.50;1.00;;;;;;6115700;23;20212;-83
2023/02/15 08:32:21;;;;;;;68.10;34.15;;;1.50;1.00;;;;;;6098826;23;20230;-81
2023/02/15 08:35:11;;;;;;;83.80;38.65;;;1.50;1.00;;;;;;6110019;23;20216;-83
2023/02/15 08:37:41;;;;;;;72.40;34.00;;;1.50;1.00;;;;;;6019709;23;20238;-83
2023/02/15 08:40:13;;;;;;;86.72;35.42;;;1.50;1.00;;;;;;6021630;23;20282;-83
2023/02/15 08:42:52;;;;;;;78.68;36.40;;;1.60;1.00;;;;;;6121308;23;20212;-82
2023/02/15 08:48:09;;;;;;;82.63;33.80;;;1.70;1.00;;;;;;6108909;23;20209;-80
2023/02/15 08:50:45;;;;;;;74.25;36.63;;;1.90;1.00;;;;;;6115314;23;20220;-80
2023/02/15 08:53:24;;;;;;;;;;;;;;;;;;;;;
2023/02/15 08:56:00;;;;;;;74.57;33.35;;;2.20;1.00;;;;;;6103608;23;40362;-80
2023/02/15 08:58:31;;;;;;;66.53;33.38;;;2.20;1.00;;;;;;6089329;23;20192;-82
2023/02/15 09:01:02;;;;;;;66.45;34.33;;;2.30;1.00;;;;;;6104044;23;20224;-80
2023/02/15 09:03:31;;;;;;;66.13;33.13;;;2.40;1.00;;;;;;6111920;23;20236;-80
2023/02/15 09:06:11;;;;;;;62.08;32.58;;;2.30;1.00;;;;;;6101372;23;20226;-81
2023/02/15 09:08:41;;;;;;;69.93;32.63;;;2.40;1.00;;;;;;6116861;23;20195;-81
2023/02/15 09:11:23;;;;;;;;;;;;;;;;;;;;;
2023/02/15 09:13:53;;;;;;;96.43;35.13;;;2.50;1.00;;;;;;6085525;23;39757;-80
2023/02/15 09:16:31;;;;;;;;;;;;;;;;;;;;;
2023/02/15 09:19:13;;;;;;;71.35;35.40;;;2.30;1.00;;;;;;6097541;23;40461;-81
2023/02/15 09:21:42;;;;;;;71.13;33.72;;;2.50;1.00;;;;;;6114110;23;20271;-83
2023/02/15 09:24:14;;;;;;;56.30;30.92;;;2.80;1.00;;;;;;6115974;23;20212;-79
2023/02/15 09:26:50;;;;;;;60.50;31.70;;;2.90;1.00;;;;;;6113948;23;20223;-79
2023/02/15 09:29:20;;;;;;;60.58;31.25;;;3.10;1.00;;;;;;6113407;23;20215;-80
2023/02/15 09:31:53;;;;;;;55.45;32.67;;;3.10;1.00;;;;;;6116397;23;20212;-80
2023/02/15 09:34:22;;;;;;;60.85;33.17;;;3.10;1.00;;;;;;6114997;23;20215;-81
2023/02/15 09:36:52;;;;;;;63.33;32.75;;;3.30;1.00;;;;;;6115385;23;20224;-80
2023/02/15 09:39:23;;;;;;;59.38;32.63;;;3.50;1.00;;;;;;6113949;23;20212;-80
2023/02/15 09:42:31;;;;;;;56.95;29.45;;;3.60;1.00;;;;;;6112610;23;20203;-82
2023/02/15 09:45:39;;;;;;;42.13;26.73;;;3.30;1.00;;;;;;6111500;23;20222;-80
2023/02/15 09:48:30;;;;;;;53.85;29.75;;;3.30;1.00;;;;;;6112107;23;20224;-80
2023/02/15 09:51:20;;;;;;;50.33;29.08;;;3.60;1.00;;;;;;6112732;23;20216;-78
2023/02/15 09:54:20;;;;;;;44.08;28.20;;;4.00;1.00;;;;;;6114291;23;20286;-78
2023/02/15 09:56:55;;;;;;;46.50;27.77;;;4.00;1.00;;;;;;6112843;23;20330;-77
2023/02/15 09:59:35;;;;;;;45.65;28.88;;;4.00;1.00;;;;;;6113761;23;20219;-78
2023/02/15 10:02:25;;;;;;;48.80;29.83;;;4.10;1.00;;;;;;6110277;23;20260;-80
2023/02/15 10:05:10;;;;;;;48.28;30.67;;;3.90;1.00;;;;;;6112808;23;20279;-80
2023/02/15 10:08:10;;;;;;;45.67;28.48;;;4.00;1.00;;;;;;6115663;23;20215;-79
2023/02/15 10:11:38;;;;;;;49.13;29.35;;;4.00;1.00;;;;;;6113231;23;20220;-79
2023/02/15 10:14:13;;;;;;;61.05;31.13;;;4.00;1.00;;;;;;6112266;23;20219;-79
2023/02/15 10:16:59;;;;;;;56.47;29.95;;;4.10;1.00;;;;;;6111622;23;20248;-81
2023/02/15 10:19:50;;;;;;;48.40;28.23;;;4.10;1.00;;;;;;6113008;23;20212;-81
2023/02/15 10:22:50;;;;;;;49.75;28.92;;;4.40;1.00;;;;;;6086206;23;20216;-80
2023/02/15 10:25:41;;;;;;;50.35;28.33;;;4.80;1.00;;;;;;6114035;23;20212;-82
2023/02/15 10:28:24;;;;;;;50.17;30.20;;;5.10;1.00;;;;;;6115605;23;20220;-82
2023/02/15 10:30:53;;;;;;;44.00;28.10;;;5.30;1.00;;;;;;6113436;23;20244;-79
2023/02/15 10:33:39;;;;;;;43.20;27.52;;;5.20;1.00;;;;;;6112031;23;20216;-81
2023/02/15 10:36:40;;;;;;;45.22;28.73;;;5.30;1.00;;;;;;6110700;23;20271;-79
2023/02/15 10:39:20;;;;;;;43.25;26.98;;;5.40;1.00;;;;;;6112824;23;20215;-80
2023/02/15 10:42:00;;;;;;;49.95;30.48;;;5.40;1.00;;;;;;6118079;23;20211;-81
2023/02/15 10:44:50;;;;;;;46.92;28.90;;;5.40;1.00;;;;;;6115880;23;20212;-81
2023/02/15 10:47:50;;;;;;;40.83;27.70;;;5.50;1.00;;;;;;6089653;23;20220;-79
2023/02/15 10:51:03;;;;;;;49.10;33.25;;;5.40;1.00;;;;;;6116761;23;20216;-78
2023/02/15 10:54:00;;;;;;;41.90;27.42;;;5.60;1.00;;;;;;6116688;23;20953;-78
2023/02/15 10:56:59;;;;;;;38.97;25.77;;;5.60;1.00;;;;;;6115506;23;20241;-78
2023/02/15 10:59:52;;;;;;;36.45;24.50;;;6.10;1.00;;;;;;6115007;23;20204;-81
2023/02/15 11:02:42;;;;;;;36.47;25.27;;;6.50;1.00;;;;;;6110119;23;20213;-79
2023/02/15 11:05:42;;;;;;;40.55;25.33;;;7.80;1.00;;;;;;6112776;23;20212;-80
2023/02/15 11:08:13;;;;;;;31.40;22.57;;;9.70;1.00;;;;;;6113308;23;20227;-81
2023/02/15 11:10:50;;;;;;;36.23;23.67;;;10.90;1.00;;;;;;6115870;23;20433;-79
2023/02/15 11:13:42;;;;;;;32.90;23.37;;;12.20;1.00;;;;;;6113475;23;20373;-80
2023/02/15 11:16:21;;;;;;;33.97;24.10;;;13.10;1.00;;;;;;6115994;23;20392;-81
2023/02/15 11:19:15;;;;;;;37.80;25.07;;;12.70;1.00;;;;;;6117504;23;20393;-80
2023/02/15 11:21:50;;;;;;;32.90;23.53;;;12.90;1.00;;;;;;6100978;23;20433;-81
2023/02/15 11:24:21;;;;;;;33.57;22.73;;;13.50;1.00;;;;;;6118291;23;20392;-81
2023/02/15 11:26:59;;;;;;;28.90;22.30;;;14.60;1.00;;;;;;6117096;23;20397;-79
2023/02/15 11:29:40;;;;;;;29.80;21.57;;;15.10;1.00;;;;;;6114492;23;20407;-80
2023/02/15 11:32:20;;;;;;;27.30;21.40;;;15.40;1.00;;;;;;6113094;23;20413;-81
2023/02/15 11:35:00;;;;;;;29.60;22.67;;;15.80;1.00;;;;;;6118413;23;21635;-80
2023/02/15 11:37:38;;;;;;;42.43;25.10;;;16.50;1.00;;;;;;6115574;23;20421;-81
2023/02/15 11:40:43;;;;;;;27.30;22.77;;;16.60;1.00;;;;;;6097545;23;20459;-80
2023/02/15 11:43:23;;;;;;;29.00;21.47;;;16.40;1.00;;;;;;6115527;23;20410;-82
2023/02/15 11:45:54;;;;;;;33.43;22.43;;;16.00;1.00;;;;;;6117367;23;20421;-81
2023/02/15 11:48:25;;;;;;;30.00;22.40;;;15.30;1.00;;;;;;6119370;23;20381;-82
2023/02/15 11:50:54;;;;;;;29.03;21.20;;;14.90;1.00;;;;;;6109867;23;20674;-82
2023/02/15 11:53:33;;;;;;;30.37;22.00;;;15.20;1.00;;;;;;6114835;23;20435;-80
2023/02/15 11:56:03;;;;;;;29.93;23.23;;;15.10;1.00;;;;;;6113679;23;20420;-79
2023/02/15 11:58:41;;;;;;;30.90;22.40;;;14.80;1.00;;;;;;6115577;23;20389;-83
2023/02/15 12:01:23;;;;;;;28.43;21.77;;;15.30;1.00;;;;;;6112184;23;20407;-81
2023/02/15 12:03:53;;;;;;;30.83;21.57;;;16.30;1.00;;;;;;6113389;23;20407;-77
2023/02/15 12:06:30;;;;;;;32.80;22.90;;;16.40;1.00;;;;;;6115892;23;20399;-79
2023/02/15 12:09:10;;;;;;;25.20;20.40;;;16.60;1.00;;;;;;6115014;23;20399;-79
2023/02/15 12:11:41;;;;;;;35.07;22.67;;;16.90;1.00;;;;;;6116161;23;20400;-80
2023/02/15 12:14:15;;;;;;;26.20;22.27;;;17.00;1.00;;;;;;6113543;23;20422;-79
2023/02/15 12:16:46;;;;;;;28.03;20.70;;;17.40;1.00;;;;;;6110657;23;20417;-79
2023/02/15 12:19:34;;;;;;;26.57;19.83;;;17.50;1.00;;;;;;6086662;23;20442;-82
2023/02/15 12:22:20;;;;;;;22.60;17.77;;;17.30;1.00;;;;;;6110478;23;20444;-81
2023/02/15 12:24:59;;;;;;;30.20;19.00;;;17.00;1.00;;;;;;6105380;23;20441;-80
2023/02/15 12:27:34;;;;;;;29.73;21.37;;;17.90;1.00;;;;;;6103628;23;21137;-80
2023/02/15 12:30:12;;;;;;;25.80;18.83;;;18.70;1.00;;;;;;6102410;23;20447;-80
2023/02/15 12:33:14;;;;;;;27.33;20.30;;;19.90;1.00;;;;;;6114050;23;20376;-81
2023/02/15 12:35:44;;;;;;;24.90;18.27;;;21.40;1.00;;;;;;6102526;23;20438;-82
2023/02/15 12:38:26;;;;;;;25.77;19.00;;;22.40;1.00;;;;;;6101955;23;20809;-80
2023/02/15 12:41:03;;;;;;;26.50;19.80;;;23.20;1.00;;;;;;6101881;23;20957;-81
2023/02/15 12:43:37;;;;;;;25.10;19.63;;;23.10;1.00;;;;;;6100457;23;20483;-83
2023/02/15 12:46:23;;;;;;;25.90;20.20;;;23.60;1.00;;;;;;6102303;23;20451;-80
2023/02/15 12:49:12;;;;;;;27.93;21.70;;;24.50;1.00;;;;;;6101756;23;20421;-83
2023/02/15 12:51:52;;;;;;;24.20;19.47;;;24.30;1.00;;;;;;6101717;23;20868;-81
2023/02/15 12:54:42;;;;;;;32.93;20.80;;;22.90;1.00;;;;;;6103972;23;20531;-80
2023/02/15 12:57:43;;;;;;;27.93;21.57;;;21.20;1.00;;;;;;6104723;23;20477;-80
2023/02/15 13:00:28;;;;;;;35.63;21.13;;;19.00;1.00;;;;;;6010002;23;20438;-81
2023/02/15 13:02:57;;;;;;;28.97;20.10;;;18.10;1.00;;;;;;6101569;23;20916;-80
2023/02/15 13:05:34;;;;;;;24.53;18.30;;;18.30;1.00;;;;;;6106409;23;20464;-80
2023/02/15 13:08:13;;;;;;;28.47;19.17;;;18.30;1.00;;;;;;6104777;23;20424;-82
2023/02/15 13:10:54;;;;;;;22.63;18.60;;;18.20;1.00;;;;;;6108412;23;20508;-83
2023/02/15 13:13:29;;;;;;;29.37;19.60;;;18.20;1.00;;;;;;6092021;23;20424;-82
2023/02/15 13:16:09;;;;;;;28.47;19.23;;;17.40;1.00;;;;;;6103195;23;20441;-82
2023/02/15 13:18:52;;;;;;;27.30;21.70;;;16.40;1.00;;;;;;6085244;23;20445;-83
2023/02/15 13:21:34;;;;;;;26.60;20.07;;;15.90;1.00;;;;;;6104698;23;21188;-82
2023/02/15 13:24:10;;;;;;;24.93;19.27;;;15.20;1.00;;;;;;6107363;23;20410;-82
2023/02/15 13:26:51;;;;;;;24.93;18.90;;;14.90;1.00;;;;;;6090212;23;20437;-81
2023/02/15 13:32:36;;;;;;;24.20;18.60;;;15.50;1.00;;;;;;6104308;23;20430;-82
2023/02/15 13:35:10;;;;;;;27.27;19.60;;;15.20;1.00;;;;;;6109307;23;20450;-84
2023/02/15 13:38:03;;;;;;;31.63;21.13;;;14.50;1.00;;;;;;6107433;23;20497;-84
2023/02/15 13:40:40;;;;;;;26.40;19.33;;;14.10;1.00;;;;;;6090559;23;20459;-81
2023/02/15 13:43:30;;;;;;;27.87;18.60;;;14.00;1.00;;;;;;6104489;23;20399;-83
2023/02/15 13:49:43;;;;;;;26.07;18.40;;;14.30;1.00;;;;;;6104918;23;20506;-82
2023/02/15 13:52:23;;;;;;;26.03;17.70;;;14.40;1.00;;;;;;6095131;23;20406;-83
2023/02/15 13:55:14;;;;;;;23.37;16.67;;;14.20;1.00;;;;;;6106542;23;20424;-83
2023/02/15 13:58:01;;;;;;;25.13;17.80;;;13.70;1.00;;;;;;6075027;23;20417;-84
2023/02/15 14:00:52;;;;;;;26.83;18.77;;;13.20;1.00;;;;;;6105250;23;20808;-83
2023/02/15 14:04:01;;;;;;;36.17;19.53;;;12.90;1.00;;;;;;6106281;23;20518;-83
2023/02/15 14:09:51;;;;;;;25.00;17.17;;;12.40;1.00;;;;;;6080530;23;20406;-82
2023/02/15 14:12:50;;;;;;;24.43;16.87;;;12.40;1.00;;;;;;6108509;23;20470;-81
2023/02/15 14:15:45;;;;;;;29.13;18.27;;;12.20;1.00;;;;;;6092603;23;20412;-84
2023/02/15 14:18:30;;;;;;;27.93;18.40;;;12.10;1.00;;;;;;6108858;23;20412;-83
2023/02/15 14:21:45;;;;;;;;;;;;;;;;;;;;;
2023/02/15 14:27:51;;;;;;;28.33;18.57;;;12.00;1.00;;;;;;6084111;23;20504;-83